Time;durP1;ratioP1;P1;durP2;ratioP2;P2;SDS_P1;SDS_P2;PMS_P1;PMS_P2;Temp;Humidity;BMP_temperature;BMP_pressure;BME280_temperature;BME280_humidity;BME280_pressure;Samples;Min_cycle;Max_cycle;Signal;HPM_P1;HPM_P2
2023/05/21 00:02:17;;;;;;;0.10;0.10;;;16.70;99.90;;;;;;5071104;28;20220;-81
2023/05/21 00:04:45;;;;;;;0.10;0.10;;;16.70;99.90;;;;;;5074643;28;20577;-81
2023/05/21 00:07:11;;;;;;;0.10;0.10;;;16.70;99.90;;;;;;5075903;28;20204;-81
2023/05/21 00:09:37;;;;;;;0.10;0.10;;;16.80;99.90;;;;;;5075574;28;20658;-81
2023/05/21 00:12:04;;;;;;;0.10;0.10;;;16.80;99.90;;;;;;5073225;28;20180;-81
2023/05/21 00:14:30;;;;;;;0.10;0.10;;;16.70;99.90;;;;;;5076383;28;20211;-81
2023/05/21 00:16:55;;;;;;;0.10;0.10;;;16.70;99.90;;;;;;5075949;28;20177;-81
2023/05/21 00:19:21;;;;;;;0.10;0.10;;;16.70;99.90;;;;;;5074937;28;20213;-81
2023/05/21 00:21:46;;;;;;;0.10;0.10;;;16.60;99.90;;;;;;5076579;28;20225;-81
2023/05/21 00:24:12;;;;;;;0.10;0.10;;;16.60;99.90;;;;;;5073378;28;20686;-81
2023/05/21 00:26:38;;;;;;;0.10;0.10;;;16.50;99.90;;;;;;5074455;28;20193;-81
2023/05/21 00:29:03;;;;;;;0.10;0.10;;;16.50;99.90;;;;;;5072017;28;20667;-81
2023/05/21 00:31:29;;;;;;;0.10;0.10;;;16.50;99.90;;;;;;5073068;28;20180;-81
2023/05/21 00:33:55;;;;;;;0.10;0.10;;;16.50;99.90;;;;;;5073862;28;20188;-81
2023/05/21 00:36:22;;;;;;;0.10;0.10;;;16.50;99.90;;;;;;5073220;28;20177;-81
2023/05/21 00:38:48;;;;;;;0.10;0.10;;;16.50;99.90;;;;;;5072201;28;20223;-81
2023/05/21 00:41:14;;;;;;;0.10;0.10;;;16.60;99.90;;;;;;5072297;28;20201;-81
2023/05/21 00:43:40;;;;;;;0.10;0.10;;;16.70;99.90;;;;;;5074984;28;20247;-81
2023/05/21 00:46:12;;;;;;;0.10;0.10;;;16.70;99.90;;;;;;5074281;28;20205;-81
2023/05/21 00:48:38;;;;;;;0.10;0.10;;;16.70;99.90;;;;;;5072773;28;20173;-81
2023/05/21 00:51:05;;;;;;;0.10;0.10;;;16.60;99.90;;;;;;5076282;28;20627;-81
2023/05/21 00:53:33;;;;;;;0.10;0.10;;;16.70;99.90;;;;;;5077576;28;20246;-81
2023/05/21 00:55:59;;;;;;;0.10;0.10;;;16.50;99.90;;;;;;5080025;28;20397;-81
2023/05/21 00:58:25;;;;;;;0.10;0.10;;;16.60;99.90;;;;;;5077522;28;20185;-81
2023/05/21 01:00:54;;;;;;;0.10;0.10;;;16.50;99.90;;;;;;5077977;28;20555;-81
2023/05/21 01:03:21;;;;;;;0.10;0.10;;;16.40;99.90;;;;;;5077900;28;20334;-82
2023/05/21 01:05:52;;;;;;;0.10;0.10;;;16.40;99.90;;;;;;5080244;28;20204;-81
2023/05/21 01:08:20;;;;;;;0.10;0.10;;;16.40;99.90;;;;;;5079594;28;20184;-81
2023/05/21 01:10:49;;;;;;;0.10;0.10;;;16.40;99.90;;;;;;5077684;28;20382;-81
2023/05/21 01:13:16;;;;;;;0.10;0.10;;;16.30;99.90;;;;;;5076619;28;20658;-82
2023/05/21 01:15:46;;;;;;;0.10;0.10;;;16.40;99.90;;;;;;5076596;28;20205;-81
2023/05/21 01:18:13;;;;;;;0.10;0.10;;;16.40;99.90;;;;;;5076073;28;20190;-81
2023/05/21 01:20:39;;;;;;;0.10;0.10;;;16.30;99.90;;;;;;5079989;28;20180;-81
2023/05/21 01:23:05;;;;;;;0.10;0.10;;;16.30;99.90;;;;;;5076649;28;20534;-81
2023/05/21 01:25:30;;;;;;;0.10;0.10;;;16.30;99.90;;;;;;5077985;28;20258;-81
2023/05/21 01:27:56;;;;;;;0.10;0.10;;;16.30;99.90;;;;;;5075997;28;20753;-81
2023/05/21 01:30:23;;;;;;;0.10;0.10;;;16.40;99.90;;;;;;5076680;28;20281;-82
2023/05/21 01:33:17;;;;;;;0.10;0.10;;;16.50;99.90;;;;;;5077024;28;20204;-81
2023/05/21 01:35:52;;;;;;;0.10;0.10;;;16.50;99.90;;;;;;5077255;28;20223;-81
2023/05/21 01:38:40;;;;;;;0.10;0.10;;;16.60;99.90;;;;;;5075950;28;20180;-82
2023/05/21 01:41:13;;;;;;;0.10;0.10;;;16.60;99.90;;;;;;5075197;28;20721;-82
2023/05/21 01:43:42;;;;;;;0.10;0.10;;;16.50;99.90;;;;;;5091785;28;20200;-81
2023/05/21 01:46:12;;;;;;;0.10;0.10;;;16.40;99.90;;;;;;5076459;28;20224;-82
2023/05/21 01:48:38;;;;;;;0.10;0.10;;;16.40;99.90;;;;;;5075792;28;20185;-82
2023/05/21 01:51:05;;;;;;;0.10;0.10;;;16.30;99.90;;;;;;5075500;28;20200;-81
2023/05/21 01:53:31;;;;;;;0.10;0.10;;;16.20;99.90;;;;;;5076776;28;20642;-81
2023/05/21 01:55:58;;;;;;;0.10;0.10;;;16.20;99.90;;;;;;5077009;28;20286;-82
2023/05/21 01:58:23;;;;;;;0.10;0.10;;;16.20;99.90;;;;;;5076718;28;20785;-82
2023/05/21 02:00:52;;;;;;;0.10;0.10;;;16.20;99.90;;;;;;5078896;28;20199;-81
2023/05/21 02:03:19;;;;;;;0.10;0.10;;;16.30;99.90;;;;;;5076710;28;20205;-81
2023/05/21 02:05:45;;;;;;;0.10;0.10;;;16.40;99.90;;;;;;5078971;28;20282;-81
2023/05/21 02:08:13;;;;;;;0.10;0.10;;;16.30;99.90;;;;;;5076211;28;20234;-81
2023/05/21 02:10:39;;;;;;;0.10;0.10;;;16.30;99.90;;;;;;5076639;28;20643;-82
2023/05/21 02:13:05;;;;;;;0.10;0.10;;;16.30;99.90;;;;;;5074853;28;20196;-81
2023/05/21 02:15:33;;;;;;;0.10;0.10;;;16.30;99.90;;;;;;5076865;28;20201;-81
2023/05/21 02:17:58;;;;;;;0.10;0.10;;;16.30;99.90;;;;;;5076608;28;20191;-82
2023/05/21 02:20:24;;;;;;;0.10;0.10;;;16.30;99.90;;;;;;5076555;28;20662;-81
2023/05/21 02:22:50;;;;;;;0.10;0.10;;;16.30;99.90;;;;;;5077013;28;20201;-82
2023/05/21 02:25:18;;;;;;;0.10;0.10;;;16.30;99.90;;;;;;5074647;28;20266;-81
2023/05/21 02:27:45;;;;;;;0.10;0.10;;;16.40;99.90;;;;;;5075400;28;20184;-82
2023/05/21 02:30:12;;;;;;;0.10;0.10;;;16.40;99.90;;;;;;5075832;28;20616;-82
2023/05/21 02:32:41;;;;;;;0.10;0.10;;;16.40;99.90;;;;;;5073940;28;20243;-82
2023/05/21 02:35:08;;;;;;;0.10;0.10;;;16.30;99.90;;;;;;5075010;28;20205;-82
2023/05/21 02:37:34;;;;;;;0.03;0.03;;;16.30;99.90;;;;;;5077821;28;20199;-81
2023/05/21 02:40:02;;;;;;;0.10;0.10;;;16.40;99.90;;;;;;5074566;28;20649;-82
2023/05/21 02:42:28;;;;;;;0.10;0.10;;;16.40;99.90;;;;;;5076285;28;20201;-82
2023/05/21 02:44:54;;;;;;;0.10;0.10;;;16.40;99.90;;;;;;5074035;28;20208;-82
2023/05/21 02:47:21;;;;;;;0.10;0.10;;;16.40;99.90;;;;;;5074871;28;20206;-81
2023/05/21 02:49:49;;;;;;;0.10;0.10;;;16.50;99.90;;;;;;5072906;28;20188;-81
2023/05/21 02:52:14;;;;;;;0.10;0.10;;;16.50;99.90;;;;;;5075496;28;20185;-82
2023/05/21 02:54:40;;;;;;;0.10;0.10;;;16.60;99.90;;;;;;5077957;28;20211;-82
2023/05/21 02:57:06;;;;;;;0.10;0.10;;;16.40;99.90;;;;;;5075968;28;20192;-82
2023/05/21 02:59:31;;;;;;;0.10;0.10;;;16.30;99.90;;;;;;5077195;28;20189;-81
2023/05/21 03:01:57;;;;;;;0.10;0.10;;;16.30;99.90;;;;;;5077777;28;20215;-81
2023/05/21 03:04:22;;;;;;;0.10;0.10;;;16.20;99.90;;;;;;5074725;28;20305;-80
2023/05/21 03:06:53;;;;;;;0.10;0.10;;;16.30;99.90;;;;;;5078682;28;20192;-81
2023/05/21 03:09:22;;;;;;;0.10;0.10;;;16.30;99.90;;;;;;5076450;28;20193;-81
2023/05/21 03:11:48;;;;;;;0.10;0.10;;;16.30;99.90;;;;;;5075512;28;20191;-81
2023/05/21 03:14:15;;;;;;;0.10;0.10;;;16.20;99.90;;;;;;5078163;28;20216;-80
2023/05/21 03:16:42;;;;;;;0.10;0.10;;;16.20;99.90;;;;;;5076485;28;20658;-81
2023/05/21 03:19:08;;;;;;;0.10;0.10;;;16.10;99.90;;;;;;5077623;28;20188;-81
2023/05/21 03:21:33;;;;;;;0.10;0.10;;;16.00;99.90;;;;;;5079893;28;20279;-80
2023/05/21 03:23:59;;;;;;;0.10;0.10;;;16.10;99.90;;;;;;5077008;28;20216;-81
2023/05/21 03:26:26;;;;;;;0.10;0.10;;;16.20;99.90;;;;;;5075661;28;21174;-81
2023/05/21 03:28:52;;;;;;;0.10;0.10;;;16.20;99.90;;;;;;5076726;28;20177;-81
2023/05/21 03:31:18;;;;;;;0.10;0.10;;;16.20;99.90;;;;;;5079696;28;20217;-81
2023/05/21 03:33:44;;;;;;;0.10;0.10;;;16.20;99.90;;;;;;5093815;28;20221;-80
2023/05/21 03:36:09;;;;;;;0.10;0.10;;;16.20;99.90;;;;;;5077882;28;20204;-81
2023/05/21 03:38:35;;;;;;;0.10;0.10;;;16.20;99.90;;;;;;5075937;28;20240;-81
2023/05/21 03:41:00;;;;;;;0.10;0.10;;;16.20;99.90;;;;;;5077419;28;20184;-81
2023/05/21 03:43:26;;;;;;;0.10;0.10;;;16.30;99.90;;;;;;5077566;28;20245;-80
2023/05/21 03:45:52;;;;;;;0.10;0.10;;;16.40;99.90;;;;;;5076810;28;20196;-81
2023/05/21 03:48:17;;;;;;;0.10;0.10;;;16.50;99.90;;;;;;5078261;28;20173;-81
2023/05/21 03:50:43;;;;;;;0.10;0.10;;;16.50;99.90;;;;;;5075643;28;20541;-81
2023/05/21 03:53:09;;;;;;;0.10;0.10;;;16.50;99.90;;;;;;5077389;28;20181;-80
2023/05/21 03:55:35;;;;;;;0.10;0.10;;;16.50;99.90;;;;;;5074178;28;20224;-81
2023/05/21 03:58:01;;;;;;;0.10;0.10;;;16.50;99.90;;;;;;5077039;28;20613;-80
2023/05/21 04:00:26;;;;;;;0.10;0.10;;;16.50;99.90;;;;;;5076798;28;20180;-81
2023/05/21 04:02:52;;;;;;;0.10;0.10;;;16.50;99.90;;;;;;5076879;28;20208;-80
2023/05/21 04:05:17;;;;;;;0.10;0.10;;;16.40;99.90;;;;;;5076045;28;20200;-80
2023/05/21 04:07:45;;;;;;;0.10;0.10;;;16.40;99.90;;;;;;5077782;28;20177;-81
2023/05/21 04:10:11;;;;;;;0.10;0.10;;;16.30;99.90;;;;;;5078680;28;20185;-81
2023/05/21 04:12:36;;;;;;;0.10;0.10;;;16.40;99.90;;;;;;5076791;28;20203;-80
2023/05/21 04:15:02;;;;;;;0.10;0.10;;;16.40;99.90;;;;;;5077744;28;20248;-81
2023/05/21 04:17:28;;;;;;;0.10;0.10;;;16.50;99.90;;;;;;5079106;28;20180;-81
2023/05/21 04:19:53;;;;;;;0.10;0.10;;;16.50;99.90;;;;;;5076750;28;20273;-81
2023/05/21 04:22:20;;;;;;;0.10;0.10;;;16.60;99.90;;;;;;5076204;28;20200;-80
2023/05/21 04:24:45;;;;;;;0.10;0.10;;;16.60;99.90;;;;;;5076105;28;20201;-81
2023/05/21 04:27:12;;;;;;;0.10;0.10;;;16.60;99.90;;;;;;5078677;28;20269;-80
2023/05/21 04:29:41;;;;;;;0.10;0.10;;;16.50;99.90;;;;;;5081994;28;20804;-83
2023/05/21 04:32:07;;;;;;;0.10;0.10;;;16.50;99.90;;;;;;5080087;28;20180;-81
2023/05/21 04:34:33;;;;;;;0.10;0.10;;;16.60;99.90;;;;;;5080358;28;20326;-82
2023/05/21 04:37:01;;;;;;;0.10;0.10;;;16.60;99.90;;;;;;5079936;28;20243;-82
2023/05/21 04:39:27;;;;;;;0.10;0.10;;;16.70;99.90;;;;;;5079938;28;20176;-82
2023/05/21 04:41:53;;;;;;;0.10;0.10;;;16.80;99.90;;;;;;5077962;28;20188;-82
2023/05/21 04:44:19;;;;;;;0.10;0.10;;;16.90;99.90;;;;;;5079063;28;20862;-81
2023/05/21 04:46:44;;;;;;;0.10;0.10;;;16.90;99.90;;;;;;5082269;28;20256;-82
2023/05/21 04:49:10;;;;;;;0.10;0.10;;;17.00;99.90;;;;;;5080491;28;20280;-81
2023/05/21 04:51:36;;;;;;;0.10;0.10;;;17.10;99.90;;;;;;5084475;28;20287;-81
2023/05/21 04:54:02;;;;;;;0.10;0.10;;;17.20;99.90;;;;;;5086326;28;20180;-81
2023/05/21 04:56:28;;;;;;;0.10;0.10;;;17.30;99.90;;;;;;5082389;28;20185;-81
2023/05/21 04:58:54;;;;;;;0.10;0.10;;;17.40;99.90;;;;;;5080484;28;20254;-81
2023/05/21 05:01:22;;;;;;;0.10;0.10;;;17.50;99.90;;;;;;5080923;28;20652;-82
2023/05/21 05:03:48;;;;;;;0.10;0.10;;;17.50;99.90;;;;;;5080497;28;20204;-82
2023/05/21 05:06:13;;;;;;;0.10;0.10;;;17.60;99.90;;;;;;5079135;28;20205;-82
2023/05/21 05:08:39;;;;;;;0.10;0.10;;;17.60;99.90;;;;;;5078893;28;20267;-82
2023/05/21 05:11:05;;;;;;;0.10;0.10;;;17.70;99.90;;;;;;5080003;28;20607;-82
2023/05/21 05:13:30;;;;;;;0.10;0.10;;;17.70;99.90;;;;;;5082264;28;20196;-82
2023/05/21 05:15:56;;;;;;;0.10;0.10;;;17.80;99.90;;;;;;5079728;28;20217;-82
2023/05/21 05:18:22;;;;;;;0.10;0.10;;;17.80;99.90;;;;;;5075177;28;20215;-84
2023/05/21 05:20:47;;;;;;;0.10;0.10;;;17.90;99.90;;;;;;5075891;28;20185;-82
2023/05/21 05:23:13;;;;;;;0.10;0.10;;;18.00;99.90;;;;;;5072215;28;20263;-84
2023/05/21 05:25:38;;;;;;;0.10;0.10;;;18.10;99.90;;;;;;5075322;28;20209;-83
2023/05/21 05:28:06;;;;;;;0.10;0.10;;;18.10;99.90;;;;;;5076703;28;20646;-83
2023/05/21 05:30:32;;;;;;;0.10;0.10;;;18.30;99.90;;;;;;5074157;28;20190;-82
2023/05/21 05:32:58;;;;;;;0.10;0.10;;;18.20;99.90;;;;;;5077242;28;20270;-82
2023/05/21 05:35:23;;;;;;;0.10;0.10;;;18.20;99.90;;;;;;5075637;28;20206;-83
2023/05/21 05:37:48;;;;;;;0.10;0.10;;;18.30;99.90;;;;;;5068674;28;20188;-82
2023/05/21 05:40:14;;;;;;;0.10;0.10;;;18.50;99.90;;;;;;5071058;28;20193;-83
2023/05/21 05:42:40;;;;;;;0.10;0.10;;;18.30;99.90;;;;;;5072457;28;21156;-82
2023/05/21 05:45:06;;;;;;;0.10;0.10;;;18.60;99.90;;;;;;5070808;28;20866;-82
2023/05/21 05:47:32;;;;;;;0.10;0.10;;;18.80;99.90;;;;;;5073804;28;20198;-82
2023/05/21 05:49:57;;;;;;;0.10;0.10;;;18.90;99.90;;;;;;5073889;28;20287;-82
2023/05/21 05:52:23;;;;;;;0.10;0.10;;;19.00;99.90;;;;;;5072279;28;20263;-82
2023/05/21 05:54:48;;;;;;;0.10;0.10;;;18.90;99.90;;;;;;5072639;28;20213;-82
2023/05/21 05:57:14;;;;;;;0.10;0.10;;;19.00;99.90;;;;;;5074731;28;20263;-81
2023/05/21 05:59:40;;;;;;;0.10;0.10;;;19.10;99.90;;;;;;5078785;28;20209;-81
2023/05/21 06:02:05;;;;;;;0.10;0.10;;;19.10;99.90;;;;;;5077483;28;20184;-81
2023/05/21 06:04:31;;;;;;;0.10;0.10;;;19.20;99.90;;;;;;5075312;28;20292;-81
2023/05/21 06:06:57;;;;;;;0.10;0.10;;;19.30;99.90;;;;;;5076047;28;20187;-81
2023/05/21 06:09:23;;;;;;;0.10;0.10;;;19.50;99.90;;;;;;5077338;28;20177;-81
2023/05/21 06:11:49;;;;;;;0.10;0.10;;;19.70;99.90;;;;;;5072615;28;20191;-81
2023/05/21 06:14:15;;;;;;;0.10;0.10;;;19.90;99.90;;;;;;5077142;28;20275;-81
2023/05/21 06:16:40;;;;;;;0.10;0.10;;;19.90;99.90;;;;;;5072083;28;20185;-81
2023/05/21 06:19:06;;;;;;;0.10;0.10;;;19.80;99.90;;;;;;5069500;28;20192;-81
2023/05/21 06:21:32;;;;;;;0.10;0.10;;;20.00;99.90;;;;;;5073640;28;20196;-81
2023/05/21 06:23:57;;;;;;;0.10;0.10;;;20.00;99.90;;;;;;5072777;28;20578;-81
2023/05/21 06:26:23;;;;;;;0.10;0.10;;;20.20;99.90;;;;;;5069236;28;20195;-81
2023/05/21 06:28:48;;;;;;;0.10;0.10;;;20.40;99.90;;;;;;5072163;28;20300;-80
2023/05/21 06:31:15;;;;;;;0.10;0.10;;;20.50;99.90;;;;;;5072287;28;20180;-81
2023/05/21 06:33:40;;;;;;;0.10;0.10;;;20.50;99.90;;;;;;5073261;28;20549;-81
2023/05/21 06:36:06;;;;;;;0.10;0.10;;;20.80;99.90;;;;;;5071049;28;20265;-81
2023/05/21 06:38:32;;;;;;;0.10;0.10;;;20.90;99.90;;;;;;5072733;28;20573;-81
2023/05/21 06:40:58;;;;;;;0.10;0.10;;;20.80;99.90;;;;;;5073946;28;20353;-81
2023/05/21 06:43:23;;;;;;;0.10;0.10;;;21.00;99.90;;;;;;5062758;28;20327;-82
2023/05/21 06:45:49;;;;;;;0.30;0.30;;;20.80;99.90;;;;;;5066036;28;20235;-82
2023/05/21 06:48:18;;;;;;;0.10;0.10;;;21.00;99.90;;;;;;5066180;28;20181;-82
2023/05/21 06:50:43;;;;;;;0.10;0.10;;;20.80;99.90;;;;;;5066390;28;20644;-81
2023/05/21 06:53:09;;;;;;;0.10;0.10;;;21.10;99.90;;;;;;5072971;28;20211;-81
2023/05/21 06:55:35;;;;;;;0.10;0.10;;;21.40;99.90;;;;;;5066811;28;20217;-81
2023/05/21 06:58:00;;;;;;;0.10;0.10;;;21.70;99.90;;;;;;5073385;28;20660;-81
2023/05/21 07:00:26;;;;;;;0.10;0.10;;;21.70;99.90;;;;;;5067842;28;20238;-81
2023/05/21 07:02:52;;;;;;;0.10;0.10;;;21.70;99.90;;;;;;5068449;28;20239;-81
2023/05/21 07:05:17;;;;;;;0.10;0.10;;;21.60;99.90;;;;;;5067943;28;20208;-81
2023/05/21 07:07:44;;;;;;;0.10;0.10;;;21.30;99.90;;;;;;5062608;28;20174;-82
2023/05/21 07:10:10;;;;;;;0.10;0.10;;;21.50;99.90;;;;;;5072994;28;20184;-82
2023/05/21 07:12:35;;;;;;;0.10;0.10;;;21.60;99.90;;;;;;5069352;28;20238;-82
2023/05/21 07:15:01;;;;;;;0.10;0.10;;;21.80;99.90;;;;;;5068616;28;20208;-82
2023/05/21 07:17:26;;;;;;;0.20;0.20;;;21.80;99.90;;;;;;5069990;28;20227;-82
2023/05/21 07:19:52;;;;;;;0.10;0.10;;;22.00;99.90;;;;;;5071476;28;20533;-81
2023/05/21 07:22:17;;;;;;;0.93;0.93;;;22.10;99.90;;;;;;5070304;28;20188;-81
2023/05/21 07:24:43;;;;;;;0.10;0.10;;;22.10;99.90;;;;;;5073223;28;20258;-83
2023/05/21 07:27:09;;;;;;;1.33;1.33;;;22.20;99.90;;;;;;5067516;28;20181;-83
2023/05/21 07:29:34;;;;;;;0.10;0.10;;;22.20;99.90;;;;;;5067336;28;20189;-84
2023/05/21 07:32:00;;;;;;;0.10;0.10;;;22.10;99.90;;;;;;5066715;28;20266;-83
2023/05/21 07:34:25;;;;;;;0.10;0.10;;;22.10;99.90;;;;;;5069637;28;21250;-83
2023/05/21 07:36:51;;;;;;;0.10;0.10;;;22.50;99.90;;;;;;5072053;28;20224;-83
2023/05/21 07:39:17;;;;;;;0.10;0.10;;;22.40;99.90;;;;;;5073452;28;20220;-83
2023/05/21 07:41:42;;;;;;;0.40;0.40;;;22.30;99.90;;;;;;5070925;28;20637;-83
2023/05/21 07:44:08;;;;;;;0.10;0.10;;;22.50;99.90;;;;;;5080547;28;20222;-82
2023/05/21 07:46:34;;;;;;;0.10;0.10;;;22.50;99.90;;;;;;5080338;28;20176;-83
2023/05/21 07:49:00;;;;;;;0.63;0.63;;;22.70;99.90;;;;;;5076416;28;20233;-82
2023/05/21 07:51:26;;;;;;;0.10;0.10;;;22.40;99.90;;;;;;5076928;28;20218;-83
2023/05/21 07:53:51;;;;;;;0.10;0.10;;;22.50;99.90;;;;;;5078311;28;20196;-82
2023/05/21 07:56:17;;;;;;;0.10;0.10;;;22.70;99.90;;;;;;5076740;28;20345;-82
2023/05/21 07:58:44;;;;;;;0.10;0.10;;;22.80;99.90;;;;;;5073601;28;20196;-82
2023/05/21 08:01:12;;;;;;;0.37;0.37;;;22.90;99.90;;;;;;5075469;28;20196;-83
2023/05/21 08:03:38;;;;;;;0.10;0.10;;;23.10;99.90;;;;;;5078887;28;20228;-83
2023/05/21 08:06:03;;;;;;;0.10;0.10;;;22.50;99.90;;;;;;5077828;28;20203;-82
2023/05/21 08:08:29;;;;;;;0.10;0.10;;;22.50;99.90;;;;;;5076723;28;20274;-82
2023/05/21 08:10:55;;;;;;;0.10;0.10;;;22.70;99.90;;;;;;5078499;28;20188;-82
2023/05/21 08:13:21;;;;;;;1.90;1.80;;;23.00;99.90;;;;;;5077215;28;20684;-82
2023/05/21 08:15:47;;;;;;;0.10;0.10;;;22.70;99.90;;;;;;5080333;28;20208;-82
2023/05/21 08:18:13;;;;;;;0.10;0.10;;;22.80;99.90;;;;;;5077640;28;20193;-82
2023/05/21 08:20:40;;;;;;;0.10;0.10;;;23.10;99.90;;;;;;5077027;28;20198;-82
2023/05/21 08:23:05;;;;;;;0.20;0.20;;;23.50;99.90;;;;;;5077159;28;20216;-82
2023/05/21 08:25:31;;;;;;;0.10;0.10;;;23.20;99.90;;;;;;5076671;28;20207;-82
2023/05/21 08:27:56;;;;;;;1.40;1.30;;;23.10;99.90;;;;;;5069975;28;20176;-83
2023/05/21 08:30:23;;;;;;;0.10;0.10;;;23.20;99.90;;;;;;5070333;28;20264;-83
2023/05/21 08:32:48;;;;;;;0.20;0.20;;;23.30;99.90;;;;;;5069079;28;20227;-83
2023/05/21 08:35:15;;;;;;;0.10;0.10;;;23.40;99.90;;;;;;5067149;28;20328;-82
2023/05/21 08:37:40;;;;;;;3.80;2.30;;;24.20;99.90;;;;;;5069128;28;20189;-82
2023/05/21 08:40:07;;;;;;;0.10;0.10;;;24.30;99.90;;;;;;5074674;28;20185;-81
2023/05/21 08:42:47;;;;;;;0.10;0.10;;;24.20;99.90;;;;;;5074525;28;20608;-81
2023/05/21 08:45:14;;;;;;;0.10;0.10;;;24.50;99.90;;;;;;5071193;28;20254;-82
2023/05/21 08:47:43;;;;;;;0.10;0.10;;;24.60;99.90;;;;;;5074873;28;20202;-82
2023/05/21 08:50:19;;;;;;;0.10;0.10;;;24.40;99.90;;;;;;5076148;28;20923;-82
2023/05/21 08:52:44;;;;;;;0.10;0.10;;;24.10;99.90;;;;;;5075099;28;20325;-82
2023/05/21 08:55:10;;;;;;;0.10;0.10;;;23.60;99.90;;;;;;5074303;28;20268;-82
2023/05/21 08:57:36;;;;;;;0.10;0.10;;;23.70;99.90;;;;;;5073344;28;20256;-83
2023/05/21 09:00:05;;;;;;;0.10;0.10;;;24.00;99.90;;;;;;5074789;28;20185;-83
2023/05/21 09:02:33;;;;;;;0.10;0.10;;;24.10;99.90;;;;;;5071423;28;21098;-82
2023/05/21 09:05:02;;;;;;;0.10;0.10;;;24.40;99.90;;;;;;5079904;28;20211;-82
2023/05/21 09:07:29;;;;;;;0.10;0.10;;;25.00;99.90;;;;;;5077234;28;20184;-82
2023/05/21 09:10:07;;;;;;;0.10;0.10;;;24.30;99.90;;;;;;5076876;28;20192;-82
2023/05/21 09:12:33;;;;;;;0.10;0.10;;;23.80;99.90;;;;;;5071259;28;20188;-82
2023/05/21 09:15:00;;;;;;;0.17;0.17;;;23.90;99.90;;;;;;5074928;28;20205;-82
2023/05/21 09:17:25;;;;;;;0.10;0.10;;;23.40;99.90;;;;;;5077191;28;20670;-82
2023/05/21 09:20:08;;;;;;;0.10;0.10;;;23.50;99.90;;;;;;5069392;28;20184;-82
2023/05/21 09:22:34;;;;;;;0.10;0.10;;;23.30;99.90;;;;;;5071009;28;20269;-82
2023/05/21 09:25:03;;;;;;;0.10;0.10;;;22.80;99.90;;;;;;5073620;28;20239;-83
2023/05/21 09:27:29;;;;;;;0.17;0.17;;;23.20;99.90;;;;;;5073328;28;20283;-82
2023/05/21 09:29:54;;;;;;;0.10;0.10;;;23.60;99.90;;;;;;5070894;28;20299;-82
2023/05/21 09:32:20;;;;;;;0.10;0.10;;;23.50;99.90;;;;;;5071931;28;20369;-82
2023/05/21 09:34:46;;;;;;;0.10;0.10;;;23.60;99.90;;;;;;5072155;28;20204;-82
2023/05/21 09:37:12;;;;;;;0.10;0.10;;;23.60;99.90;;;;;;5070539;28;20177;-82
2023/05/21 09:39:40;;;;;;;0.10;0.10;;;23.40;99.90;;;;;;5075157;28;20180;-82
2023/05/21 09:42:05;;;;;;;0.10;0.10;;;23.80;99.90;;;;;;5071826;28;20651;-82
2023/05/21 09:44:31;;;;;;;0.10;0.10;;;23.90;99.90;;;;;;5073080;28;20226;-82
2023/05/21 09:46:58;;;;;;;0.10;0.10;;;24.00;99.90;;;;;;5074793;28;20542;-82
2023/05/21 09:49:25;;;;;;;1.43;1.33;;;24.70;99.90;;;;;;5072111;28;20185;-82
2023/05/21 09:51:55;;;;;;;0.50;0.50;;;23.90;99.90;;;;;;5074262;28;20178;-82
2023/05/21 09:54:21;;;;;;;0.10;0.10;;;23.80;99.90;;;;;;5073703;28;20223;-83
2023/05/21 09:56:46;;;;;;;0.10;0.10;;;24.00;99.90;;;;;;5068284;28;20685;-85
2023/05/21 09:59:12;;;;;;;0.10;0.10;;;24.00;99.90;;;;;;5074105;28;20180;-82
2023/05/21 10:01:38;;;;;;;0.10;0.10;;;24.30;99.90;;;;;;5069536;28;20199;-83
2023/05/21 10:04:06;;;;;;;0.10;0.10;;;24.50;99.90;;;;;;5070901;28;20216;-83
2023/05/21 10:06:37;;;;;;;0.10;0.10;;;25.00;99.90;;;;;;5070154;28;20734;-83
2023/05/21 10:09:09;;;;;;;0.10;0.10;;;25.10;99.90;;;;;;5072439;28;20176;-83
2023/05/21 10:11:35;;;;;;;0.10;0.10;;;25.10;99.90;;;;;;5073837;28;20182;-82
2023/05/21 10:14:06;;;;;;;0.10;0.10;;;25.00;99.90;;;;;;5072419;28;20189;-83
2023/05/21 10:16:33;;;;;;;0.20;0.20;;;25.60;99.90;;;;;;5073737;28;21345;-83
2023/05/21 10:18:59;;;;;;;0.30;0.30;;;25.60;99.90;;;;;;5073813;28;20189;-83
2023/05/21 10:21:25;;;;;;;0.10;0.10;;;25.90;99.90;;;;;;5070282;28;20207;-83
2023/05/21 10:23:52;;;;;;;0.10;0.10;;;26.40;99.90;;;;;;5066910;28;20319;-83
2023/05/21 10:26:20;;;;;;;0.10;0.10;;;26.50;99.90;;;;;;5067891;28;20205;-83
2023/05/21 10:28:47;;;;;;;0.10;0.10;;;26.10;99.90;;;;;;5071217;28;20258;-83
2023/05/21 10:31:13;;;;;;;0.10;0.10;;;26.50;99.90;;;;;;5069534;28;20196;-82
2023/05/21 10:33:41;;;;;;;0.10;0.10;;;26.20;99.90;;;;;;5068559;28;20193;-82
2023/05/21 10:36:07;;;;;;;0.10;0.10;;;25.70;99.90;;;;;;5070784;28;20254;-83
2023/05/21 10:38:33;;;;;;;0.10;0.10;;;25.50;99.90;;;;;;5069386;28;20602;-82
2023/05/21 10:41:00;;;;;;;0.10;0.10;;;25.80;99.90;;;;;;5070191;28;20266;-83
2023/05/21 10:44:04;;;;;;;0.10;0.10;;;26.20;99.90;;;;;;5063531;28;20209;-83
2023/05/21 10:46:48;;;;;;;0.10;0.10;;;26.40;99.90;;;;;;5086126;28;20192;-82
2023/05/21 10:49:44;;;;;;;0.10;0.10;;;26.10;99.90;;;;;;5070548;28;20172;-82
2023/05/21 10:52:30;;;;;;;0.10;0.10;;;25.90;99.90;;;;;;5068692;28;20265;-83
2023/05/21 10:55:35;;;;;;;0.10;0.10;;;25.60;99.90;;;;;;5072452;28;20211;-82
2023/05/21 10:58:12;;;;;;;0.10;0.10;;;25.60;99.90;;;;;;5068594;28;20291;-84
2023/05/21 11:00:38;;;;;;;0.57;0.57;;;25.50;99.90;;;;;;5068657;28;20180;-85
2023/05/21 11:03:05;;;;;;;0.10;0.10;;;25.80;99.90;;;;;;5069503;28;20299;-82
2023/05/21 11:05:50;;;;;;;0.10;0.10;;;26.10;99.90;;;;;;5070177;28;20667;-83
2023/05/21 11:08:26;;;;;;;0.20;0.20;;;25.80;99.90;;;;;;5071560;28;20208;-83
2023/05/21 11:10:53;;;;;;;0.10;0.10;;;25.70;99.90;;;;;;5073592;28;20198;-83
2023/05/21 11:13:20;;;;;;;0.10;0.10;;;25.60;99.90;;;;;;5071032;28;20188;-83
2023/05/21 11:15:58;;;;;;;0.13;0.13;;;25.50;99.90;;;;;;5070339;28;20243;-83
2023/05/21 11:18:39;;;;;;;0.10;0.10;;;25.90;99.90;;;;;;5069809;28;20729;-84
2023/05/21 11:21:13;;;;;;;0.10;0.10;;;25.70;99.90;;;;;;5069915;28;20547;-84
2023/05/21 11:24:00;;;;;;;0.10;0.10;;;25.90;99.90;;;;;;5069324;28;20218;-83
2023/05/21 11:26:54;;;;;;;0.10;0.10;;;26.00;99.90;;;;;;5069551;28;20386;-83
2023/05/21 11:29:19;;;;;;;0.10;0.10;;;26.60;99.90;;;;;;5070358;28;20234;-84
2023/05/21 11:32:00;;;;;;;0.10;0.10;;;26.00;99.90;;;;;;5068584;28;20189;-83
2023/05/21 11:34:28;;;;;;;0.10;0.10;;;26.20;99.90;;;;;;5066779;28;20607;-83
2023/05/21 11:37:16;;;;;;;0.10;0.10;;;26.40;99.90;;;;;;5062602;28;20190;-83
2023/05/21 11:39:43;;;;;;;0.10;0.10;;;26.50;99.90;;;;;;5067097;28;20254;-83
2023/05/21 11:42:08;;;;;;;0.28;0.28;;;26.80;99.90;;;;;;5067526;28;20185;-83
2023/05/21 11:44:45;;;;;;;0.10;0.10;;;26.40;99.90;;;;;;5067578;28;20216;-83
2023/05/21 11:47:16;;;;;;;0.10;0.10;;;26.50;99.90;;;;;;5063827;28;20216;-83
2023/05/21 11:49:43;;;;;;;0.10;0.10;;;26.50;99.90;;;;;;5069505;28;20180;-83
2023/05/21 11:52:10;;;;;;;0.10;0.10;;;25.90;99.90;;;;;;5068975;28;20181;-84
2023/05/21 11:54:45;;;;;;;0.10;0.10;;;26.20;99.90;;;;;;5071150;28;20678;-84
2023/05/21 11:57:13;;;;;;;0.10;0.10;;;26.80;99.90;;;;;;5067836;28;20188;-84
2023/05/21 11:59:39;;;;;;;0.10;0.10;;;26.50;99.90;;;;;;5069551;28;20886;-83
2023/05/21 12:02:05;;;;;;;0.10;0.10;;;26.50;99.90;;;;;;5070520;28;21255;-83
2023/05/21 12:04:35;;;;;;;0.52;0.52;;;26.30;99.90;;;;;;5070667;28;20223;-83
2023/05/21 12:07:08;;;;;;;0.10;0.10;;;26.40;99.90;;;;;;5069005;28;20173;-84
2023/05/21 12:09:50;;;;;;;0.10;0.10;;;26.80;99.90;;;;;;5070242;28;20192;-84
2023/05/21 12:12:20;;;;;;;0.10;0.10;;;26.40;99.90;;;;;;5069669;28;20184;-83
2023/05/21 12:14:48;;;;;;;0.10;0.10;;;26.30;99.90;;;;;;5073809;28;20236;-83
2023/05/21 12:17:24;;;;;;;0.10;0.10;;;26.50;99.90;;;;;;5072320;28;20199;-84
2023/05/21 12:19:51;;;;;;;0.10;0.10;;;26.50;99.90;;;;;;5070433;28;20215;-84
2023/05/21 12:22:16;;;;;;;0.10;0.10;;;27.00;99.90;;;;;;5072392;28;20932;-84
2023/05/21 12:24:43;;;;;;;0.10;0.10;;;26.90;99.90;;;;;;5075046;28;20299;-83
2023/05/21 12:27:12;;;;;;;0.10;0.10;;;27.00;99.90;;;;;;5069388;28;20211;-83
2023/05/21 12:29:40;;;;;;;0.10;0.10;;;26.80;99.90;;;;;;5071518;28;20188;-84
2023/05/21 12:32:07;;;;;;;0.10;0.10;;;27.10;99.90;;;;;;5070563;28;20195;-83
2023/05/21 12:34:56;;;;;;;0.10;0.10;;;26.60;99.90;;;;;;5073222;28;20209;-84
2023/05/21 12:37:26;;;;;;;0.10;0.10;;;26.80;99.90;;;;;;5071796;28;20178;-83
2023/05/21 12:39:53;;;;;;;0.10;0.10;;;26.80;99.90;;;;;;5070596;28;20187;-83
2023/05/21 12:42:26;;;;;;;0.15;0.15;;;26.80;99.90;;;;;;5064789;28;20270;-84
2023/05/21 12:44:53;;;;;;;1.65;0.80;;;26.40;99.90;;;;;;5074828;28;20701;-84
2023/05/21 12:47:21;;;;;;;0.10;0.10;;;26.70;99.90;;;;;;5075980;28;20181;-84
2023/05/21 12:49:47;;;;;;;0.20;0.20;;;26.20;99.90;;;;;;5077766;28;20556;-84
2023/05/21 12:52:14;;;;;;;0.10;0.10;;;26.20;99.90;;;;;;5072625;28;20276;-84